createdAt,value
2019-03-04T00:00:50.854Z,97346.20
2019-03-04T00:03:20.047Z,97353.28
2019-03-04T00:05:49.227Z,97345.66
2019-03-04T00:08:18.444Z,97345.66
2019-03-04T00:10:47.628Z,97354.02
2019-03-04T00:13:16.881Z,97354.00
2019-03-04T00:15:46.064Z,97368.67
2019-03-04T00:18:15.298Z,97377.83
2019-03-04T00:20:44.496Z,97372.19
2019-03-04T00:23:13.705Z,97380.94
2019-03-04T00:25:42.903Z,97375.78
2019-03-04T00:28:12.116Z,97384.20
2019-03-04T00:30:41.306Z,97390.23
2019-03-04T00:33:10.510Z,97396.38
2019-03-04T00:35:39.699Z,97403.42
2019-03-04T00:38:08.914Z,97393.58
2019-03-04T00:40:38.110Z,97385.73
2019-03-04T00:43:07.294Z,97386.34
2019-03-04T00:45:36.517Z,97389.34
2019-03-04T00:48:05.706Z,97393.23
2019-03-04T00:50:35.015Z,97389.39
2019-03-04T00:53:04.288Z,97385.32
2019-03-04T00:55:33.484Z,97383.97
2019-03-04T00:58:02.667Z,97376.09
2019-03-04T01:00:31.882Z,97371.27
2019-03-04T01:03:01.070Z,97380.46
2019-03-04T01:05:30.278Z,97358.95
2019-03-04T01:07:59.461Z,97374.16
2019-03-04T01:10:28.677Z,97378.22
2019-03-04T01:12:57.873Z,97370.87
2019-03-04T01:15:27.076Z,97374.97
2019-03-04T01:17:56.280Z,97370.67
2019-03-04T01:20:25.488Z,97369.50
2019-03-04T01:22:54.682Z,97364.51
2019-03-04T01:25:23.894Z,97355.05
2019-03-04T01:27:53.072Z,97348.77
2019-03-04T01:30:23.713Z,97348.70
2019-03-04T01:32:53.370Z,97317.91
2019-03-04T01:35:22.560Z,97316.35
2019-03-04T01:37:51.744Z,97312.89
2019-03-04T01:40:22.585Z,97303.36
2019-03-04T01:42:51.763Z,97262.83
2019-03-04T01:45:20.961Z,97240.95
2019-03-04T01:47:50.144Z,97240.15
2019-03-04T01:50:19.320Z,97250.86
2019-03-04T01:52:48.530Z,97227.36
2019-03-04T01:55:18.229Z,97207.66
2019-03-04T01:57:47.443Z,97123.78
2019-03-04T02:00:19.033Z,97141.92
2019-03-04T02:02:48.233Z,97141.75
2019-03-04T02:05:17.417Z,97132.98
2019-03-04T02:07:46.618Z,97111.77
2019-03-04T02:10:17.546Z,97090.06
2019-03-04T02:12:47.487Z,97088.81
2019-03-04T02:15:18.223Z,97069.23
2019-03-04T02:17:47.412Z,97061.58
2019-03-04T02:20:17.537Z,97053.91
2019-03-04T02:22:46.907Z,97045.91
2019-03-04T02:25:19.357Z,97043.83
2019-03-04T02:27:51.290Z,97043.94
2019-03-04T02:30:26.388Z,97035.63
2019-03-04T02:32:55.594Z,97027.22
2019-03-04T02:35:24.789Z,97019.61
2019-03-04T02:37:53.977Z,97018.33
2019-03-04T02:40:23.226Z,97024.05
2019-03-04T02:42:52.444Z,97042.41
2019-03-04T02:45:21.626Z,97053.42
2019-03-04T02:47:50.822Z,97067.64
2019-03-04T02:50:20.017Z,97082.20
2019-03-04T02:52:49.216Z,97079.69
2019-03-04T02:55:18.433Z,97062.34
2019-03-04T02:57:47.637Z,97060.58
2019-03-04T03:00:22.847Z,97051.97
2019-03-04T03:02:52.228Z,97044.25
2019-03-04T03:05:21.463Z,97026.52
2019-03-04T03:07:50.676Z,97034.03
2019-03-04T03:10:19.850Z,97017.48
2019-03-04T03:12:49.059Z,97026.62
2019-03-04T03:15:19.879Z,97025.98
2019-03-04T03:17:49.083Z,97032.08
2019-03-04T03:20:18.374Z,97021.86
2019-03-04T03:22:47.603Z,97019.67
2019-03-04T03:25:16.953Z,97011.59
2019-03-04T03:27:46.149Z,97014.95
2019-03-04T03:30:17.934Z,97011.48
2019-03-04T03:32:47.150Z,97008.53
2019-03-04T03:35:16.350Z,96999.09
2019-03-04T03:37:45.552Z,96996.16
2019-03-04T03:40:19.981Z,96987.85
2019-03-04T03:42:49.167Z,96973.38
2019-03-04T03:45:18.428Z,96972.59
2019-03-04T03:47:47.623Z,96967.02
2019-03-04T03:50:17.596Z,96966.00
2019-03-04T03:52:46.967Z,96965.48
2019-03-04T03:55:16.768Z,96955.70
2019-03-04T03:57:45.971Z,96947.17
2019-03-04T04:00:22.442Z,96944.00
2019-03-04T04:02:51.817Z,96914.25
2019-03-04T04:05:20.992Z,96908.36
2019-03-04T04:07:50.190Z,96917.05
2019-03-04T04:10:20.511Z,96914.87
2019-03-04T04:12:49.706Z,96909.68
2019-03-04T04:15:19.729Z,96900.75
2019-03-04T04:17:48.942Z,96906.96
2019-03-04T04:20:18.133Z,96904.98
2019-03-04T04:22:47.334Z,96903.96
2019-03-04T04:25:16.534Z,96902.81
2019-03-04T04:27:45.770Z,96896.34
2019-03-04T04:30:17.721Z,96886.84
2019-03-04T04:32:47.104Z,96871.67
2019-03-04T04:35:16.290Z,96857.77
2019-03-04T04:37:45.521Z,96858.55
2019-03-04T04:40:14.788Z,96847.39
2019-03-04T04:42:43.980Z,96850.89
2019-03-04T04:45:13.185Z,96851.42
2019-03-04T04:47:43.544Z,96833.38
2019-03-04T04:50:15.986Z,96822.72
2019-03-04T04:52:45.202Z,96817.53
2019-03-04T04:55:14.386Z,96816.55
2019-03-04T04:57:43.603Z,96825.76
2019-03-04T05:00:14.821Z,96818.88
2019-03-04T05:02:44.040Z,96827.27
2019-03-04T05:05:13.403Z,96837.48
2019-03-04T05:07:42.678Z,96830.89
2019-03-04T05:10:22.424Z,96827.93
2019-03-04T05:12:51.631Z,96826.95
2019-03-04T05:15:20.876Z,96819.20
2019-03-04T05:17:50.109Z,96818.18
2019-03-04T05:20:24.455Z,96810.82
2019-03-04T05:22:53.655Z,96809.09
2019-03-04T05:25:22.900Z,96814.31
2019-03-04T05:27:52.216Z,96833.23
2019-03-04T05:30:21.951Z,96843.73
2019-03-04T05:32:51.142Z,96816.29
2019-03-04T05:35:20.338Z,96803.07
2019-03-04T05:37:49.552Z,96809.58
2019-03-04T05:40:19.955Z,96783.37
2019-03-04T05:42:49.228Z,96769.34
2019-03-04T05:45:18.956Z,96762.73
2019-03-04T05:47:48.243Z,96750.17
2019-03-04T05:50:22.487Z,96757.72
2019-03-04T05:52:51.687Z,96735.69
2019-03-04T05:55:20.874Z,96730.20
2019-03-04T05:57:50.077Z,96729.47
2019-03-04T06:00:21.663Z,96765.08
2019-03-04T06:02:52.405Z,96771.49
2019-03-04T06:05:21.592Z,96758.12
2019-03-04T06:07:52.431Z,96728.22
2019-03-04T06:10:21.637Z,96686.89
2019-03-04T06:12:50.810Z,96667.18
2019-03-04T06:15:20.876Z,96677.27
2019-03-04T06:17:50.075Z,96666.09
2019-03-04T06:20:20.022Z,96712.38
2019-03-04T06:22:49.187Z,96657.86
2019-03-04T06:25:24.340Z,96722.78
2019-03-04T06:27:53.543Z,96702.33
2019-03-04T06:30:27.728Z,96686.02
2019-03-04T06:32:56.911Z,96716.28
2019-03-04T06:35:26.130Z,96701.24
2019-03-04T06:37:55.462Z,96669.11
2019-03-04T06:40:24.656Z,96707.59
2019-03-04T06:42:53.847Z,96698.95
2019-03-04T06:45:23.047Z,96686.31
2019-03-04T06:47:52.223Z,96691.18
2019-03-04T06:50:44.674Z,96721.09
2019-03-04T06:53:32.165Z,96722.72
2019-03-04T06:56:07.790Z,96676.55
2019-03-04T06:58:43.151Z,96696.20
2019-03-04T07:01:14.925Z,96709.39
2019-03-04T07:03:44.124Z,96681.20
2019-03-04T07:06:13.310Z,96661.80
2019-03-04T07:08:45.792Z,96689.11
2019-03-04T07:11:14.984Z,96685.98
2019-03-04T07:13:44.200Z,96660.29
2019-03-04T07:16:13.406Z,96677.42
2019-03-04T07:18:42.619Z,96662.98
2019-03-04T07:21:11.792Z,96663.33
2019-03-04T07:23:43.827Z,96666.02
2019-03-04T07:26:13.182Z,96652.64
2019-03-04T07:28:42.386Z,96671.16
2019-03-04T07:31:11.655Z,96664.56
2019-03-04T07:33:40.856Z,96690.88
2019-03-04T07:36:10.041Z,96672.80
2019-03-04T07:38:44.260Z,96705.03
2019-03-04T07:41:13.445Z,96803.42
2019-03-04T07:43:42.671Z,96811.03
2019-03-04T07:46:11.946Z,96798.09
2019-03-04T07:48:41.146Z,96807.53
2019-03-04T07:51:15.300Z,96830.80
2019-03-04T07:53:46.746Z,96840.92
2019-03-04T07:56:15.443Z,96842.09
2019-03-04T07:58:44.636Z,96827.11
2019-03-04T08:01:13.826Z,96830.92
2019-03-04T08:03:43.094Z,96828.95
2019-03-04T08:06:12.340Z,96827.20
2019-03-04T08:09:03.441Z,96816.09
2019-03-04T08:11:44.873Z,96789.78
2019-03-04T08:14:14.484Z,96799.34
2019-03-04T08:16:43.657Z,96796.76
2019-03-04T08:19:12.852Z,96791.97
2019-03-04T08:21:42.048Z,96793.80
2019-03-04T08:24:11.261Z,96784.30
2019-03-04T08:26:40.439Z,96793.69
2019-03-04T08:29:09.657Z,96816.38
2019-03-04T08:31:38.842Z,96809.28
2019-03-04T08:34:09.374Z,96803.70
2019-03-04T08:36:38.635Z,96814.47
2019-03-04T08:39:08.507Z,96816.69
2019-03-04T08:41:37.737Z,96820.98
2019-03-04T08:44:07.020Z,96815.80
2019-03-04T08:46:36.287Z,96820.70
2019-03-04T08:49:05.511Z,96822.47
2019-03-04T08:51:34.697Z,96827.33
2019-03-04T08:54:03.934Z,96827.32
2019-03-04T08:56:33.124Z,96817.86
2019-03-04T08:59:02.331Z,96824.36
2019-03-04T09:01:31.601Z,96829.70
2019-03-04T09:04:00.826Z,96835.45
2019-03-04T09:06:30.015Z,96837.11
2019-03-04T09:08:59.347Z,96846.78
2019-03-04T09:11:28.515Z,96843.45
2019-03-04T09:13:57.728Z,96835.34
2019-03-04T09:16:26.999Z,96857.83
2019-03-04T09:18:56.199Z,96879.69
2019-03-04T09:21:25.489Z,96835.51
2019-03-04T09:23:54.703Z,96844.48
2019-03-04T09:26:23.982Z,96842.55
2019-03-04T09:28:53.198Z,96845.45
2019-03-04T09:31:22.378Z,96828.50
2019-03-04T09:33:51.686Z,96844.83
2019-03-04T09:36:20.878Z,96824.17
2019-03-04T09:38:50.087Z,96812.69
2019-03-04T09:41:19.260Z,96826.46
2019-03-04T09:43:48.526Z,96828.98
2019-03-04T09:46:17.758Z,96840.47
2019-03-04T09:48:46.958Z,96817.41
2019-03-04T09:51:24.110Z,96828.42
2019-03-04T09:53:47.164Z,96820.25
2019-03-04T09:56:16.342Z,96813.39
2019-03-04T09:58:45.551Z,96822.37
2019-03-04T10:01:18.000Z,96816.63
2019-03-04T10:04:10.101Z,96806.28
2019-03-04T10:06:51.081Z,96814.67
2019-03-04T10:09:29.718Z,96801.95
2019-03-04T10:12:23.381Z,96817.19
2019-03-04T10:15:08.355Z,96829.66
2019-03-04T10:17:38.612Z,96827.81
2019-03-04T10:20:16.603Z,96837.39
2019-03-04T10:22:51.624Z,96840.50
2019-03-04T10:25:54.696Z,96833.67
2019-03-04T10:28:46.619Z,96807.22
2019-03-04T10:31:24.614Z,96835.05
2019-03-04T10:34:13.415Z,96845.00
2019-03-04T10:37:02.245Z,96832.47
2019-03-04T10:39:54.577Z,96811.66
2019-03-04T10:42:45.159Z,96814.87
2019-03-04T10:45:42.026Z,96824.67
2019-03-04T10:48:11.217Z,96828.23
2019-03-04T10:50:40.431Z,96813.92
2019-03-04T10:53:09.715Z,96837.52
2019-03-04T10:55:42.157Z,96834.80
2019-03-04T10:58:09.815Z,96843.77
2019-03-04T11:00:39.122Z,96843.52
2019-03-04T11:03:08.312Z,96839.83
2019-03-04T11:05:37.516Z,96825.55
2019-03-04T11:08:06.703Z,96817.73
2019-03-04T11:10:35.930Z,96813.87
2019-03-04T11:13:05.124Z,96802.27
2019-03-04T11:15:34.344Z,96777.06
2019-03-04T11:18:03.538Z,96779.24
2019-03-04T11:20:32.752Z,96744.16
2019-03-04T11:23:01.944Z,96742.41
2019-03-04T11:25:31.808Z,96724.47
2019-03-04T11:28:01.010Z,96746.47
2019-03-04T11:30:31.986Z,96724.53
2019-03-04T11:33:01.162Z,96737.33
2019-03-04T11:35:30.382Z,96709.63
2019-03-04T11:37:59.592Z,96712.98
2019-03-04T11:40:32.378Z,96726.87
2019-03-04T11:43:01.560Z,96746.81
2019-03-04T11:45:30.782Z,96776.36
2019-03-04T11:47:59.976Z,96835.14
2019-03-04T11:50:29.200Z,96818.12
2019-03-04T11:52:58.383Z,96812.56
2019-03-04T11:55:32.428Z,96792.86
2019-03-04T11:58:01.625Z,96806.37
2019-03-04T12:00:32.491Z,96807.72
2019-03-04T12:03:01.679Z,96808.89
2019-03-04T12:05:30.900Z,96825.30
2019-03-04T12:08:00.167Z,96826.27
2019-03-04T12:10:29.498Z,96817.15
2019-03-04T12:12:58.691Z,96782.70
2019-03-04T12:15:28.006Z,96804.45
2019-03-04T12:17:57.182Z,96799.02
2019-03-04T12:20:26.387Z,96785.05
2019-03-04T12:22:55.595Z,96767.28
2019-03-04T12:25:24.877Z,96806.67
2019-03-04T12:27:54.167Z,96804.45
2019-03-04T12:30:24.819Z,96835.05
2019-03-04T12:32:54.381Z,96810.20
2019-03-04T12:35:23.589Z,96820.67
2019-03-04T12:37:52.770Z,96791.95
2019-03-04T12:40:24.821Z,96813.44
2019-03-04T12:42:54.057Z,96803.45
2019-03-04T12:45:33.663Z,96797.28
2019-03-04T12:47:55.035Z,96807.87
2019-03-04T12:50:32.020Z,96801.69
2019-03-04T12:53:01.215Z,96779.24
2019-03-04T12:55:30.400Z,96776.18
2019-03-04T12:57:59.681Z,96780.69
2019-03-04T13:00:30.859Z,96795.45
2019-03-04T13:03:00.065Z,96775.19
2019-03-04T13:05:29.258Z,96788.28
2019-03-04T13:07:58.454Z,96795.81
2019-03-04T13:10:27.637Z,96797.23
2019-03-04T13:12:56.836Z,96813.28
2019-03-04T13:15:34.422Z,96810.70
2019-03-04T13:18:06.662Z,96812.94
2019-03-04T13:20:35.792Z,96829.75
2019-03-04T13:23:05.248Z,96826.88
2019-03-04T13:25:34.435Z,96850.49
2019-03-04T13:28:08.192Z,96863.70
2019-03-04T13:30:39.114Z,96863.99
2019-03-04T13:33:08.312Z,96863.30
2019-03-04T13:35:41.810Z,96866.06
2019-03-04T13:38:11.026Z,96862.27
2019-03-04T13:40:40.204Z,96882.83
2019-03-04T13:43:09.423Z,96886.69
2019-03-04T13:45:38.701Z,96893.77
2019-03-04T13:48:07.898Z,96904.23
2019-03-04T13:50:37.644Z,96918.95
2019-03-04T13:53:06.850Z,96924.54
2019-03-04T13:55:36.042Z,96928.07
2019-03-04T13:58:05.406Z,96915.97
2019-03-04T14:00:45.118Z,96921.87
2019-03-04T14:03:14.777Z,96912.20
2019-03-04T14:05:44.027Z,96931.34
2019-03-04T14:08:13.227Z,96917.81
2019-03-04T14:10:45.030Z,96927.23
2019-03-04T14:13:14.222Z,96946.97
2019-03-04T14:15:45.969Z,96939.71
2019-03-04T14:18:15.203Z,96960.52
2019-03-04T14:20:44.400Z,97006.45
2019-03-04T14:23:13.588Z,97027.14
2019-03-04T14:25:42.861Z,97034.30
2019-03-04T14:28:12.066Z,97034.38
2019-03-04T14:30:41.263Z,97047.30
2019-03-04T14:33:10.480Z,97052.63
2019-03-04T14:35:39.655Z,97053.83
2019-03-04T14:38:08.859Z,97059.97
2019-03-04T14:40:38.039Z,97071.30
2019-03-04T14:43:07.241Z,97081.46
2019-03-04T14:45:36.427Z,97078.52
2019-03-04T14:48:05.639Z,97077.74
2019-03-04T14:50:34.818Z,97066.34
2019-03-04T14:53:04.023Z,97084.27
2019-03-04T14:55:40.607Z,97089.95
2019-03-04T14:58:09.814Z,97094.84
2019-03-04T15:00:41.511Z,97113.52
2019-03-04T15:03:19.826Z,97110.99
2019-03-04T15:05:41.611Z,97113.39
2019-03-04T15:08:11.725Z,97121.08
2019-03-04T15:10:40.896Z,97128.35
2019-03-04T15:13:10.254Z,97133.43
2019-03-04T15:15:39.371Z,97148.23
2019-03-04T15:18:08.570Z,97154.27
2019-03-04T15:20:37.745Z,97156.80
2019-03-04T15:23:06.950Z,97179.91
2019-03-04T15:25:41.291Z,97183.15
2019-03-04T15:28:13.755Z,97186.69
2019-03-04T15:30:44.741Z,97192.40
2019-03-04T15:33:18.142Z,97197.11
2019-03-04T15:35:44.814Z,97206.34
2019-03-04T15:38:14.000Z,97205.92
2019-03-04T15:40:43.256Z,97212.05
2019-03-04T15:43:12.463Z,97216.10
2019-03-04T15:45:43.279Z,97216.02
2019-03-04T15:48:13.013Z,97221.63
2019-03-04T15:50:42.211Z,97227.66
2019-03-04T15:53:11.392Z,97229.55
2019-03-04T15:55:40.602Z,97230.88
2019-03-04T15:58:09.801Z,97241.05
2019-03-04T16:00:38.976Z,97235.88
2019-03-04T16:03:08.249Z,97240.38
2019-03-04T16:05:37.423Z,97243.08
2019-03-04T16:08:07.921Z,97241.53
2019-03-04T16:10:38.297Z,97254.27
2019-03-04T16:13:09.131Z,97253.09
2019-03-04T16:15:41.152Z,97266.73
2019-03-04T16:18:10.357Z,97267.20
2019-03-04T16:20:39.549Z,97273.61
2019-03-04T16:23:08.763Z,97282.52
2019-03-04T16:25:38.022Z,97283.34
2019-03-04T16:28:25.371Z,97288.95
2019-03-04T16:30:54.545Z,97279.39
2019-03-04T16:33:24.584Z,97279.84
2019-03-04T16:35:53.861Z,97288.56
2019-03-04T16:38:23.130Z,97297.67
2019-03-04T16:40:52.362Z,97301.14
2019-03-04T16:43:21.577Z,97308.64
2019-03-04T16:45:50.858Z,97312.19
2019-03-04T16:48:20.075Z,97315.36
2019-03-04T16:50:49.355Z,97318.11
2019-03-04T16:53:22.059Z,97318.59
2019-03-04T16:55:51.262Z,97322.14
2019-03-04T16:58:20.470Z,97324.27
2019-03-04T17:00:49.731Z,97323.61
2019-03-04T17:03:18.946Z,97334.64
2019-03-04T17:05:48.089Z,97334.20
2019-03-04T17:08:17.318Z,97334.41
2019-03-04T17:10:46.514Z,97338.70
2019-03-04T17:13:15.745Z,97342.58
2019-03-04T17:15:45.041Z,97352.33
2019-03-04T17:18:14.210Z,97358.53
2019-03-04T17:20:43.432Z,97361.92
2019-03-04T17:23:12.610Z,97368.61
2019-03-04T17:25:41.812Z,97373.73
2019-03-04T17:28:10.994Z,97372.53
2019-03-04T17:30:40.202Z,97375.88
2019-03-04T17:33:09.388Z,97379.89
2019-03-04T17:35:38.583Z,97385.22
2019-03-04T17:38:07.826Z,97388.79
2019-03-04T17:40:37.022Z,97391.27
2019-03-04T17:43:06.218Z,97388.12
2019-03-04T17:45:35.417Z,97392.48
2019-03-04T17:48:04.597Z,97395.48
2019-03-04T17:50:35.802Z,97396.25
2019-03-04T17:53:09.803Z,97401.87
2019-03-04T17:55:38.999Z,97404.98
2019-03-04T17:58:08.184Z,97401.87
2019-03-04T18:00:39.268Z,97407.02
2019-03-04T18:03:08.450Z,97405.50
2019-03-04T18:05:37.644Z,97411.17
2019-03-04T18:08:06.819Z,97407.30
2019-03-04T18:10:36.096Z,97411.62
2019-03-04T18:13:07.893Z,97416.45
2019-03-04T18:15:41.387Z,97421.16
2019-03-04T18:18:10.575Z,97427.31
2019-03-04T18:20:39.767Z,97430.49
2019-03-04T18:23:08.954Z,97425.17
2019-03-04T18:25:41.204Z,97427.26
2019-03-04T18:28:28.565Z,97427.26
2019-03-04T18:31:10.025Z,97425.56
2019-03-04T18:33:45.364Z,97434.77
2019-03-04T18:36:29.930Z,97435.64
2019-03-04T18:39:20.885Z,97444.78
2019-03-04T18:42:13.070Z,97443.95
2019-03-04T18:44:51.050Z,97447.97
2019-03-04T18:47:38.633Z,97451.02
2019-03-04T18:50:07.998Z,97457.42
2019-03-04T18:52:37.172Z,97468.63
2019-03-04T18:55:08.427Z,97469.11
2019-03-04T18:57:37.608Z,97469.49
2019-03-04T19:00:10.074Z,97466.84
2019-03-04T19:02:39.265Z,97470.77
2019-03-04T19:05:10.135Z,97483.89
2019-03-04T19:07:39.506Z,97473.82
2019-03-04T19:10:11.390Z,97486.45
2019-03-04T19:12:40.602Z,97495.66
2019-03-04T19:15:11.043Z,97490.42
2019-03-04T19:17:40.222Z,97499.67
2019-03-04T19:20:17.221Z,97489.16
2019-03-04T19:22:46.414Z,97490.52
2019-03-04T19:25:15.619Z,97498.39
2019-03-04T19:27:44.965Z,97499.70
2019-03-04T19:30:17.266Z,97511.48
2019-03-04T19:32:46.460Z,97510.09
2019-03-04T19:35:15.903Z,97517.89
2019-03-04T19:37:45.105Z,97528.71
2019-03-04T19:40:15.972Z,97536.95
2019-03-04T19:42:45.113Z,97532.98
2019-03-04T19:45:18.786Z,97529.50
2019-03-04T19:47:47.964Z,97537.86
2019-03-04T19:50:17.172Z,97544.88
2019-03-04T19:52:46.347Z,97548.02
2019-03-04T19:55:19.160Z,97551.91
2019-03-04T19:57:48.303Z,97548.81
2019-03-04T20:00:24.724Z,97556.18
2019-03-04T20:02:53.437Z,97550.16
2019-03-04T20:05:23.760Z,97566.28
2019-03-04T20:07:53.025Z,97557.60
2019-03-04T20:10:22.236Z,97566.33
2019-03-04T20:12:51.484Z,97584.16
2019-03-04T20:15:29.170Z,97571.20
2019-03-04T20:17:58.359Z,97574.64
2019-03-04T20:20:27.566Z,97585.58
2019-03-04T20:22:56.741Z,97584.20
2019-03-04T20:25:28.309Z,97593.32
2019-03-04T20:27:57.529Z,97596.38
2019-03-04T20:30:26.756Z,97599.86
2019-03-04T20:32:55.974Z,97601.60
2019-03-04T20:35:25.216Z,97609.45
2019-03-04T20:38:06.278Z,97609.92
2019-03-04T20:40:35.454Z,97611.62
2019-03-04T20:43:04.646Z,97614.28
2019-03-04T20:45:33.919Z,97610.80
2019-03-04T20:48:03.299Z,97613.38
2019-03-04T20:50:32.475Z,97617.70
2019-03-04T20:53:01.690Z,97627.29
2019-03-04T20:55:30.872Z,97633.80
2019-03-04T20:58:00.110Z,97626.78
2019-03-04T21:00:34.645Z,97628.05
2019-03-04T21:03:05.958Z,97632.81
2019-03-04T21:05:37.334Z,97625.88
2019-03-04T21:08:07.182Z,97627.17
2019-03-04T21:10:36.441Z,97635.86
2019-03-04T21:13:07.276Z,97633.21
2019-03-04T21:15:36.477Z,97637.64
2019-03-04T21:18:06.211Z,97636.30
2019-03-04T21:20:35.461Z,97641.85
2019-03-04T21:23:04.700Z,97641.81
2019-03-04T21:25:36.394Z,97648.68
2019-03-04T21:28:23.758Z,97646.09
2019-03-04T21:30:59.089Z,97650.54
2019-03-04T21:33:59.644Z,97652.56
2019-03-04T21:36:54.746Z,97663.08
2019-03-04T21:39:35.010Z,97664.34
2019-03-04T21:42:10.258Z,97653.91
2019-03-04T21:44:59.957Z,97658.75
2019-03-04T21:47:37.974Z,97669.88
2019-03-04T21:50:13.494Z,97669.41
2019-03-04T21:52:46.928Z,97677.66
2019-03-04T21:55:31.540Z,97692.09
2019-03-04T21:58:00.817Z,97679.95
2019-03-04T22:00:32.987Z,97696.18
2019-03-04T22:03:08.060Z,97699.76
2019-03-04T22:05:37.860Z,97708.08
2019-03-04T22:08:07.057Z,97706.41
2019-03-04T22:10:36.236Z,97709.92
2019-03-04T22:13:05.456Z,97709.11
2019-03-04T22:15:34.735Z,97708.63
2019-03-04T22:18:04.396Z,97709.05
2019-03-04T22:20:33.640Z,97728.80
2019-03-04T22:23:02.862Z,97726.62
2019-03-04T22:25:32.036Z,97740.09
2019-03-04T22:28:01.228Z,97742.30
2019-03-04T22:30:30.411Z,97739.75
2019-03-04T22:32:59.600Z,97746.76
2019-03-04T22:35:28.805Z,97741.95
2019-03-04T22:37:58.001Z,97744.19
2019-03-04T22:40:28.321Z,97749.88
2019-03-04T22:42:57.542Z,97749.45
2019-03-04T22:45:26.736Z,97755.58
2019-03-04T22:47:55.944Z,97759.44
2019-03-04T22:50:25.139Z,97766.02
2019-03-04T22:52:54.339Z,97770.80
2019-03-04T22:55:32.066Z,97769.13
2019-03-04T22:58:01.289Z,97769.11
2019-03-04T23:00:50.197Z,97774.75
2019-03-04T23:03:19.597Z,97776.03
2019-03-04T23:05:51.613Z,97772.96
2019-03-04T23:08:20.813Z,97777.70
2019-03-04T23:10:51.035Z,97776.42
2019-03-04T23:13:23.485Z,97767.70
2019-03-04T23:15:54.102Z,97771.13
2019-03-04T23:18:23.303Z,97772.45
2019-03-04T23:20:52.489Z,97778.48
2019-03-04T23:23:21.675Z,97777.64
2019-03-04T23:25:50.867Z,97776.72
2019-03-04T23:28:20.147Z,97784.11
2019-03-04T23:30:49.362Z,97778.94
2019-03-04T23:33:18.647Z,97778.91
2019-03-04T23:35:47.862Z,97770.18
2019-03-04T23:38:17.042Z,97773.66
2019-03-04T23:40:46.245Z,97774.09
2019-03-04T23:43:15.422Z,97769.75
2019-03-04T23:45:44.637Z,97774.55
2019-03-04T23:48:13.816Z,97761.95
2019-03-04T23:50:43.016Z,97759.34
2019-03-04T23:53:12.209Z,97767.63
2019-03-04T23:55:41.406Z,97766.77
2019-03-04T23:58:10.592Z,97772.00
